sensor_id;sensor_type;location;lat;lon;timestamp;P1;durP1;ratioP1;P2;durP2;ratioP2
48911;SDS011;34722;52.108;5.044;2022-09-09T00:52:50;8.77;;;5.68;;
48911;SDS011;34722;52.108;5.044;2022-09-09T00:58:13;12.18;;;5.82;;
48911;SDS011;34722;52.108;5.044;2022-09-09T01:00:44;13.32;;;6.07;;
48911;SDS011;34722;52.108;5.044;2022-09-09T01:09:21;9.38;;;6.18;;
48911;SDS011;34722;52.108;5.044;2022-09-09T01:14:48;11.63;;;6.53;;
48911;SDS011;34722;52.108;5.044;2022-09-09T01:28:05;12.23;;;6.43;;
48911;SDS011;34722;52.108;5.044;2022-09-09T01:30:37;14.65;;;6.70;;
48911;SDS011;34722;52.108;5.044;2022-09-09T01:33:04;11.95;;;6.03;;
48911;SDS011;34722;52.108;5.044;2022-09-09T01:38:05;12.82;;;6.82;;
48911;SDS011;34722;52.108;5.044;2022-09-09T01:40:31;10.68;;;6.85;;
48911;SDS011;34722;52.108;5.044;2022-09-09T01:42:59;12.23;;;7.13;;
48911;SDS011;34722;52.108;5.044;2022-09-09T01:45:25;11.57;;;7.05;;
48911;SDS011;34722;52.108;5.044;2022-09-09T01:47:54;11.35;;;6.90;;
48911;SDS011;34722;52.108;5.044;2022-09-09T01:50:21;11.48;;;7.68;;
48911;SDS011;34722;52.108;5.044;2022-09-09T01:52:48;17.77;;;7.60;;
48911;SDS011;34722;52.108;5.044;2022-09-09T01:55:22;15.55;;;7.55;;
48911;SDS011;34722;52.108;5.044;2022-09-09T01:58:28;18.00;;;8.57;;
48911;SDS011;34722;52.108;5.044;2022-09-09T02:03:55;15.35;;;9.45;;
48911;SDS011;34722;52.108;5.044;2022-09-09T02:08:55;21.83;;;8.90;;
48911;SDS011;34722;52.108;5.044;2022-09-09T02:11:26;19.48;;;9.93;;
48911;SDS011;34722;52.108;5.044;2022-09-09T02:13:57;18.20;;;10.52;;
48911;SDS011;34722;52.108;5.044;2022-09-09T02:19:03;16.90;;;11.07;;
48911;SDS011;34722;52.108;5.044;2022-09-09T02:21:38;20.92;;;11.02;;
48911;SDS011;34722;52.108;5.044;2022-09-09T02:24:07;20.58;;;12.10;;
48911;SDS011;34722;52.108;5.044;2022-09-09T02:26:35;21.95;;;11.02;;
48911;SDS011;34722;52.108;5.044;2022-09-09T02:29:07;22.55;;;11.23;;
48911;SDS011;34722;52.108;5.044;2022-09-09T02:31:36;20.55;;;12.43;;
48911;SDS011;34722;52.108;5.044;2022-09-09T02:34:03;21.02;;;11.90;;
48911;SDS011;34722;52.108;5.044;2022-09-09T02:36:36;16.73;;;11.25;;
48911;SDS011;34722;52.108;5.044;2022-09-09T02:39:04;24.25;;;12.65;;
48911;SDS011;34722;52.108;5.044;2022-09-09T02:41:33;21.48;;;12.82;;
48911;SDS011;34722;52.108;5.044;2022-09-09T02:44:00;26.70;;;12.82;;
48911;SDS011;34722;52.108;5.044;2022-09-09T02:49:06;21.80;;;11.98;;
48911;SDS011;34722;52.108;5.044;2022-09-09T02:52:06;21.13;;;12.18;;
48911;SDS011;34722;52.108;5.044;2022-09-09T02:54:34;18.10;;;11.52;;
48911;SDS011;34722;52.108;5.044;2022-09-09T02:57:25;24.38;;;13.90;;
48911;SDS011;34722;52.108;5.044;2022-09-09T02:59:56;20.55;;;11.48;;
48911;SDS011;34722;52.108;5.044;2022-09-09T03:02:23;18.35;;;11.68;;
48911;SDS011;34722;52.108;5.044;2022-09-09T03:04:50;18.17;;;10.95;;
48911;SDS011;34722;52.108;5.044;2022-09-09T03:07:17;16.40;;;9.80;;
48911;SDS011;34722;52.108;5.044;2022-09-09T03:09:43;18.20;;;11.20;;
48911;SDS011;34722;52.108;5.044;2022-09-09T03:12:09;20.10;;;10.57;;
48911;SDS011;34722;52.108;5.044;2022-09-09T03:14:36;16.17;;;10.50;;
48911;SDS011;34722;52.108;5.044;2022-09-09T03:17:03;19.50;;;11.57;;
48911;SDS011;34722;52.108;5.044;2022-09-09T03:19:30;21.60;;;10.98;;
48911;SDS011;34722;52.108;5.044;2022-09-09T03:21:56;17.35;;;10.20;;
48911;SDS011;34722;52.108;5.044;2022-09-09T03:24:23;17.02;;;9.75;;
48911;SDS011;34722;52.108;5.044;2022-09-09T03:26:49;21.75;;;10.45;;
48911;SDS011;34722;52.108;5.044;2022-09-09T03:29:15;23.40;;;11.18;;
48911;SDS011;34722;52.108;5.044;2022-09-09T03:31:42;20.10;;;10.50;;
48911;SDS011;34722;52.108;5.044;2022-09-09T03:34:09;17.92;;;10.68;;
48911;SDS011;34722;52.108;5.044;2022-09-09T03:36:35;17.50;;;9.80;;
48911;SDS011;34722;52.108;5.044;2022-09-09T03:39:01;20.08;;;9.65;;
48911;SDS011;34722;52.108;5.044;2022-09-09T03:41:29;16.20;;;9.57;;
48911;SDS011;34722;52.108;5.044;2022-09-09T03:43:55;22.15;;;10.23;;
48911;SDS011;34722;52.108;5.044;2022-09-09T03:46:22;16.52;;;9.02;;
48911;SDS011;34722;52.108;5.044;2022-09-09T03:48:50;19.13;;;9.95;;
48911;SDS011;34722;52.108;5.044;2022-09-09T03:51:17;19.08;;;10.00;;
48911;SDS011;34722;52.108;5.044;2022-09-09T03:53:43;16.92;;;10.32;;
48911;SDS011;34722;52.108;5.044;2022-09-09T03:56:09;18.95;;;9.82;;
48911;SDS011;34722;52.108;5.044;2022-09-09T03:58:36;18.42;;;8.65;;
48911;SDS011;34722;52.108;5.044;2022-09-09T04:01:03;16.90;;;9.07;;
48911;SDS011;34722;52.108;5.044;2022-09-09T04:03:30;20.95;;;8.85;;
48911;SDS011;34722;52.108;5.044;2022-09-09T04:05:58;15.30;;;8.77;;
48911;SDS011;34722;52.108;5.044;2022-09-09T04:08:25;18.08;;;9.05;;
48911;SDS011;34722;52.108;5.044;2022-09-09T04:10:51;16.58;;;8.68;;
48911;SDS011;34722;52.108;5.044;2022-09-09T04:13:18;17.73;;;8.60;;
48911;SDS011;34722;52.108;5.044;2022-09-09T04:15:50;12.73;;;8.23;;
48911;SDS011;34722;52.108;5.044;2022-09-09T04:18:17;13.63;;;7.88;;
48911;SDS011;34722;52.108;5.044;2022-09-09T04:20:45;18.85;;;8.65;;
48911;SDS011;34722;52.108;5.044;2022-09-09T04:23:15;19.08;;;8.27;;
48911;SDS011;34722;52.108;5.044;2022-09-09T04:25:45;16.13;;;7.60;;
48911;SDS011;34722;52.108;5.044;2022-09-09T04:28:12;14.20;;;7.28;;
48911;SDS011;34722;52.108;5.044;2022-09-09T04:30:38;15.15;;;7.97;;
48911;SDS011;34722;52.108;5.044;2022-09-09T04:33:05;12.90;;;6.75;;
48911;SDS011;34722;52.108;5.044;2022-09-09T04:35:31;11.68;;;6.38;;
48911;SDS011;34722;52.108;5.044;2022-09-09T04:37:57;18.33;;;8.85;;
48911;SDS011;34722;52.108;5.044;2022-09-09T04:40:23;14.80;;;7.95;;
48911;SDS011;34722;52.108;5.044;2022-09-09T04:42:50;15.57;;;6.97;;
48911;SDS011;34722;52.108;5.044;2022-09-09T04:45:16;14.45;;;6.88;;
48911;SDS011;34722;52.108;5.044;2022-09-09T04:47:42;13.75;;;6.97;;
48911;SDS011;34722;52.108;5.044;2022-09-09T04:50:07;16.70;;;7.53;;
48911;SDS011;34722;52.108;5.044;2022-09-09T04:52:34;14.43;;;7.38;;
48911;SDS011;34722;52.108;5.044;2022-09-09T04:55:00;14.60;;;8.02;;
48911;SDS011;34722;52.108;5.044;2022-09-09T04:57:26;13.40;;;7.20;;
48911;SDS011;34722;52.108;5.044;2022-09-09T04:59:53;15.93;;;7.03;;
48911;SDS011;34722;52.108;5.044;2022-09-09T05:02:19;12.18;;;7.05;;
48911;SDS011;34722;52.108;5.044;2022-09-09T05:04:45;19.70;;;7.43;;
48911;SDS011;34722;52.108;5.044;2022-09-09T05:07:11;18.20;;;7.75;;
48911;SDS011;34722;52.108;5.044;2022-09-09T05:09:38;13.52;;;7.20;;
48911;SDS011;34722;52.108;5.044;2022-09-09T05:12:04;14.07;;;7.45;;
48911;SDS011;34722;52.108;5.044;2022-09-09T05:14:29;14.25;;;6.57;;
48911;SDS011;34722;52.108;5.044;2022-09-09T05:16:55;15.77;;;7.07;;
48911;SDS011;34722;52.108;5.044;2022-09-09T05:19:21;14.73;;;7.05;;
48911;SDS011;34722;52.108;5.044;2022-09-09T05:21:47;20.23;;;8.02;;
48911;SDS011;34722;52.108;5.044;2022-09-09T05:24:13;18.42;;;7.43;;
48911;SDS011;34722;52.108;5.044;2022-09-09T05:26:39;11.23;;;6.63;;
48911;SDS011;34722;52.108;5.044;2022-09-09T05:29:05;13.13;;;6.80;;
48911;SDS011;34722;52.108;5.044;2022-09-09T05:31:31;16.70;;;7.18;;
48911;SDS011;34722;52.108;5.044;2022-09-09T05:33:57;16.05;;;6.72;;
48911;SDS011;34722;52.108;5.044;2022-09-09T05:36:24;15.85;;;7.03;;
48911;SDS011;34722;52.108;5.044;2022-09-09T05:38:50;12.32;;;6.32;;
48911;SDS011;34722;52.108;5.044;2022-09-09T05:41:18;12.38;;;6.07;;
48911;SDS011;34722;52.108;5.044;2022-09-09T05:43:45;14.35;;;6.47;;
48911;SDS011;34722;52.108;5.044;2022-09-09T05:46:12;12.95;;;5.90;;
48911;SDS011;34722;52.108;5.044;2022-09-09T05:48:43;13.00;;;6.70;;
48911;SDS011;34722;52.108;5.044;2022-09-09T05:51:14;11.07;;;5.82;;
48911;SDS011;34722;52.108;5.044;2022-09-09T05:53:42;18.55;;;7.50;;
48911;SDS011;34722;52.108;5.044;2022-09-09T05:56:10;16.13;;;5.45;;
48911;SDS011;34722;52.108;5.044;2022-09-09T05:58:36;13.45;;;6.00;;
48911;SDS011;34722;52.108;5.044;2022-09-09T06:01:03;14.02;;;5.30;;
48911;SDS011;34722;52.108;5.044;2022-09-09T06:03:37;12.20;;;5.20;;
48911;SDS011;34722;52.108;5.044;2022-09-09T06:06:05;14.63;;;5.90;;
48911;SDS011;34722;52.108;5.044;2022-09-09T06:08:32;12.43;;;5.30;;
48911;SDS011;34722;52.108;5.044;2022-09-09T06:11:03;10.55;;;5.07;;
48911;SDS011;34722;52.108;5.044;2022-09-09T06:13:30;9.32;;;4.90;;
48911;SDS011;34722;52.108;5.044;2022-09-09T06:15:57;11.43;;;4.60;;
48911;SDS011;34722;52.108;5.044;2022-09-09T06:18:23;12.95;;;5.43;;
48911;SDS011;34722;52.108;5.044;2022-09-09T06:20:53;13.02;;;4.55;;
48911;SDS011;34722;52.108;5.044;2022-09-09T06:23:26;17.30;;;4.50;;
48911;SDS011;34722;52.108;5.044;2022-09-09T06:28:33;8.52;;;4.90;;
48911;SDS011;34722;52.108;5.044;2022-09-09T06:31:00;8.70;;;3.75;;
48911;SDS011;34722;52.108;5.044;2022-09-09T06:33:26;8.43;;;3.67;;
48911;SDS011;34722;52.108;5.044;2022-09-09T06:35:55;11.25;;;4.63;;
48911;SDS011;34722;52.108;5.044;2022-09-09T06:38:22;10.68;;;3.60;;
48911;SDS011;34722;52.108;5.044;2022-09-09T06:40:52;10.82;;;4.32;;
48911;SDS011;34722;52.108;5.044;2022-09-09T06:43:24;9.15;;;3.45;;
48911;SDS011;34722;52.108;5.044;2022-09-09T06:45:54;10.75;;;3.95;;
48911;SDS011;34722;52.108;5.044;2022-09-09T06:48:21;6.63;;;3.00;;
48911;SDS011;34722;52.108;5.044;2022-09-09T06:50:47;7.85;;;4.03;;
48911;SDS011;34722;52.108;5.044;2022-09-09T06:53:15;6.05;;;2.60;;
48911;SDS011;34722;52.108;5.044;2022-09-09T06:55:44;8.75;;;3.38;;
48911;SDS011;34722;52.108;5.044;2022-09-09T06:58:10;9.30;;;3.13;;
48911;SDS011;34722;52.108;5.044;2022-09-09T07:00:36;6.68;;;2.70;;
48911;SDS011;34722;52.108;5.044;2022-09-09T07:03:04;16.13;;;4.13;;
48911;SDS011;34722;52.108;5.044;2022-09-09T07:05:31;10.10;;;3.95;;
48911;SDS011;34722;52.108;5.044;2022-09-09T07:07:56;11.02;;;3.92;;
48911;SDS011;34722;52.108;5.044;2022-09-09T07:10:22;13.07;;;4.03;;
48911;SDS011;34722;52.108;5.044;2022-09-09T07:12:51;10.57;;;3.72;;
48911;SDS011;34722;52.108;5.044;2022-09-09T07:15:18;13.43;;;3.95;;
48911;SDS011;34722;52.108;5.044;2022-09-09T07:17:44;14.80;;;4.18;;
48911;SDS011;34722;52.108;5.044;2022-09-09T07:20:10;6.88;;;3.72;;
48911;SDS011;34722;52.108;5.044;2022-09-09T07:22:36;13.70;;;4.28;;
48911;SDS011;34722;52.108;5.044;2022-09-09T07:25:02;10.88;;;4.40;;
48911;SDS011;34722;52.108;5.044;2022-09-09T07:27:28;11.63;;;4.53;;
48911;SDS011;34722;52.108;5.044;2022-09-09T07:29:55;12.68;;;5.63;;
48911;SDS011;34722;52.108;5.044;2022-09-09T07:32:20;11.13;;;4.55;;
48911;SDS011;34722;52.108;5.044;2022-09-09T07:34:46;13.40;;;4.85;;
48911;SDS011;34722;52.108;5.044;2022-09-09T07:37:12;12.73;;;5.18;;
48911;SDS011;34722;52.108;5.044;2022-09-09T07:39:38;10.32;;;4.93;;
48911;SDS011;34722;52.108;5.044;2022-09-09T07:42:04;12.60;;;4.25;;
48911;SDS011;34722;52.108;5.044;2022-09-09T07:44:30;16.98;;;4.50;;
48911;SDS011;34722;52.108;5.044;2022-09-09T07:46:59;12.85;;;4.65;;
48911;SDS011;34722;52.108;5.044;2022-09-09T07:49:25;9.98;;;4.93;;
48911;SDS011;34722;52.108;5.044;2022-09-09T07:51:51;18.02;;;5.72;;
48911;SDS011;34722;52.108;5.044;2022-09-09T07:54:18;11.63;;;4.72;;
48911;SDS011;34722;52.108;5.044;2022-09-09T07:56:45;13.10;;;4.88;;
48911;SDS011;34722;52.108;5.044;2022-09-09T07:59:12;13.52;;;6.32;;
48911;SDS011;34722;52.108;5.044;2022-09-09T08:01:43;12.20;;;5.63;;
48911;SDS011;34722;52.108;5.044;2022-09-09T08:04:14;8.90;;;4.88;;
48911;SDS011;34722;52.108;5.044;2022-09-09T08:06:46;15.75;;;5.45;;
48911;SDS011;34722;52.108;5.044;2022-09-09T08:09:14;11.70;;;4.93;;
48911;SDS011;34722;52.108;5.044;2022-09-09T08:11:41;10.20;;;5.15;;
48911;SDS011;34722;52.108;5.044;2022-09-09T08:14:08;7.60;;;4.60;;
48911;SDS011;34722;52.108;5.044;2022-09-09T08:16:36;9.38;;;4.50;;
48911;SDS011;34722;52.108;5.044;2022-09-09T08:19:04;8.63;;;4.45;;
48911;SDS011;34722;52.108;5.044;2022-09-09T08:21:32;12.90;;;4.88;;
48911;SDS011;34722;52.108;5.044;2022-09-09T08:24:00;14.43;;;5.47;;
48911;SDS011;34722;52.108;5.044;2022-09-09T08:26:30;14.20;;;4.28;;
48911;SDS011;34722;52.108;5.044;2022-09-09T08:28:59;15.75;;;4.78;;
48911;SDS011;34722;52.108;5.044;2022-09-09T08:31:27;12.23;;;5.10;;
48911;SDS011;34722;52.108;5.044;2022-09-09T08:33:55;13.48;;;5.10;;
48911;SDS011;34722;52.108;5.044;2022-09-09T08:36:23;12.25;;;4.30;;
48911;SDS011;34722;52.108;5.044;2022-09-09T08:38:54;14.18;;;5.25;;
48911;SDS011;34722;52.108;5.044;2022-09-09T08:49:51;7.85;;;3.90;;
48911;SDS011;34722;52.108;5.044;2022-09-09T08:52:29;6.75;;;3.72;;
48911;SDS011;34722;52.108;5.044;2022-09-09T08:55:24;18.23;;;4.63;;
48911;SDS011;34722;52.108;5.044;2022-09-09T08:58:02;14.48;;;4.55;;
48911;SDS011;34722;52.108;5.044;2022-09-09T09:06:36;11.55;;;4.80;;
48911;SDS011;34722;52.108;5.044;2022-09-09T09:12:01;16.08;;;4.72;;
48911;SDS011;34722;52.108;5.044;2022-09-09T09:14:28;12.85;;;4.88;;
48911;SDS011;34722;52.108;5.044;2022-09-09T09:19:21;10.65;;;5.30;;
48911;SDS011;34722;52.108;5.044;2022-09-09T09:27:36;15.80;;;4.57;;
48911;SDS011;34722;52.108;5.044;2022-09-09T09:30:17;12.20;;;4.20;;
48911;SDS011;34722;52.108;5.044;2022-09-09T09:32:53;16.40;;;5.35;;
48911;SDS011;34722;52.108;5.044;2022-09-09T09:35:21;9.77;;;5.05;;
48911;SDS011;34722;52.108;5.044;2022-09-09T09:37:47;13.73;;;4.78;;
48911;SDS011;34722;52.108;5.044;2022-09-09T09:40:20;14.60;;;6.80;;
48911;SDS011;34722;52.108;5.044;2022-09-09T09:42:48;14.73;;;5.20;;
48911;SDS011;34722;52.108;5.044;2022-09-09T09:45:26;13.68;;;4.97;;
48911;SDS011;34722;52.108;5.044;2022-09-09T09:50:27;16.73;;;5.35;;
48911;SDS011;34722;52.108;5.044;2022-09-09T09:52:58;9.75;;;4.13;;
48911;SDS011;34722;52.108;5.044;2022-09-09T09:55:26;6.65;;;4.10;;
48911;SDS011;34722;52.108;5.044;2022-09-09T09:58:02;10.40;;;4.22;;
48911;SDS011;34722;52.108;5.044;2022-09-09T10:00:29;14.93;;;4.82;;
48911;SDS011;34722;52.108;5.044;2022-09-09T10:02:55;12.65;;;3.75;;
48911;SDS011;34722;52.108;5.044;2022-09-09T10:05:28;14.32;;;4.50;;
48911;SDS011;34722;52.108;5.044;2022-09-09T10:08:12;11.07;;;3.92;;
48911;SDS011;34722;52.108;5.044;2022-09-09T10:13:36;13.43;;;4.50;;
48911;SDS011;34722;52.108;5.044;2022-09-09T10:19:05;15.95;;;6.30;;
48911;SDS011;34722;52.108;5.044;2022-09-09T10:27:20;13.60;;;5.45;;
48911;SDS011;34722;52.108;5.044;2022-09-09T10:29:56;7.47;;;5.40;;
48911;SDS011;34722;52.108;5.044;2022-09-09T10:40:30;14.45;;;4.43;;
48911;SDS011;34722;52.108;5.044;2022-09-09T10:45:55;8.57;;;3.80;;
48911;SDS011;34722;52.108;5.044;2022-09-09T10:54:06;12.00;;;4.07;;
48911;SDS011;34722;52.108;5.044;2022-09-09T10:56:56;9.35;;;3.92;;
48911;SDS011;34722;52.108;5.044;2022-09-09T10:59:30;13.77;;;4.75;;
48911;SDS011;34722;52.108;5.044;2022-09-09T11:04:37;9.32;;;3.70;;
48911;SDS011;34722;52.108;5.044;2022-09-09T11:07:07;8.63;;;4.03;;
48911;SDS011;34722;52.108;5.044;2022-09-09T11:09:41;9.40;;;4.13;;
48911;SDS011;34722;52.108;5.044;2022-09-09T11:12:15;12.48;;;4.05;;
48911;SDS011;34722;52.108;5.044;2022-09-09T11:17:20;8.48;;;3.88;;
48911;SDS011;34722;52.108;5.044;2022-09-09T11:19:49;12.35;;;4.18;;
48911;SDS011;34722;52.108;5.044;2022-09-09T11:22:35;8.25;;;4.25;;
48911;SDS011;34722;52.108;5.044;2022-09-09T11:38:29;14.80;;;7.45;;
48911;SDS011;34722;52.108;5.044;2022-09-09T11:41:02;13.32;;;6.72;;
48911;SDS011;34722;52.108;5.044;2022-09-09T11:43:42;14.35;;;6.10;;
48911;SDS011;34722;52.108;5.044;2022-09-09T11:46:10;13.23;;;6.30;;
48911;SDS011;34722;52.108;5.044;2022-09-09T11:48:43;10.05;;;6.22;;
48911;SDS011;34722;52.108;5.044;2022-09-09T11:53:50;10.95;;;6.43;;
48911;SDS011;34722;52.108;5.044;2022-09-09T11:56:34;17.45;;;6.60;;
48911;SDS011;34722;52.108;5.044;2022-09-09T11:59:22;9.75;;;5.60;;
48911;SDS011;34722;52.108;5.044;2022-09-09T12:02:03;7.13;;;4.65;;
48911;SDS011;34722;52.108;5.044;2022-09-09T12:05:02;10.65;;;4.95;;
48911;SDS011;34722;52.108;5.044;2022-09-09T12:07:45;10.57;;;5.35;;
48911;SDS011;34722;52.108;5.044;2022-09-09T12:12:51;8.43;;;4.55;;
48911;SDS011;34722;52.108;5.044;2022-09-09T12:15:19;8.73;;;4.78;;
48911;SDS011;34722;52.108;5.044;2022-09-09T12:17:55;8.10;;;4.03;;
48911;SDS011;34722;52.108;5.044;2022-09-09T12:20:33;9.77;;;4.47;;
48911;SDS011;34722;52.108;5.044;2022-09-09T12:23:36;9.15;;;4.82;;
48911;SDS011;34722;52.108;5.044;2022-09-09T12:34:18;14.45;;;5.10;;
48911;SDS011;34722;52.108;5.044;2022-09-09T12:37:14;7.38;;;4.97;;
48911;SDS011;34722;52.108;5.044;2022-09-09T12:40:00;7.72;;;4.68;;
48911;SDS011;34722;52.108;5.044;2022-09-09T12:42:31;10.40;;;4.95;;
48911;SDS011;34722;52.108;5.044;2022-09-09T12:45:01;12.00;;;5.20;;
48911;SDS011;34722;52.108;5.044;2022-09-09T12:50:24;6.25;;;4.53;;
48911;SDS011;34722;52.108;5.044;2022-09-09T12:52:56;9.73;;;5.15;;
48911;SDS011;34722;52.108;5.044;2022-09-09T12:55:25;7.28;;;5.38;;
48911;SDS011;34722;52.108;5.044;2022-09-09T12:57:55;11.43;;;5.65;;
48911;SDS011;34722;52.108;5.044;2022-09-09T13:00:24;7.13;;;5.07;;
48911;SDS011;34722;52.108;5.044;2022-09-09T13:02:55;15.13;;;5.75;;
48911;SDS011;34722;52.108;5.044;2022-09-09T13:05:35;11.10;;;5.28;;
48911;SDS011;34722;52.108;5.044;2022-09-09T13:08:04;26.45;;;7.00;;
48911;SDS011;34722;52.108;5.044;2022-09-09T13:10:46;9.25;;;5.60;;
48911;SDS011;34722;52.108;5.044;2022-09-09T13:13:31;9.90;;;5.07;;
48911;SDS011;34722;52.108;5.044;2022-09-09T13:16:03;7.90;;;4.90;;
48911;SDS011;34722;52.108;5.044;2022-09-09T13:18:37;7.00;;;4.57;;
48911;SDS011;34722;52.108;5.044;2022-09-09T13:21:05;7.53;;;4.22;;
48911;SDS011;34722;52.108;5.044;2022-09-09T13:23:32;7.85;;;4.32;;
48911;SDS011;34722;52.108;5.044;2022-09-09T13:26:04;6.68;;;4.35;;
48911;SDS011;34722;52.108;5.044;2022-09-09T13:28:51;7.15;;;4.35;;
48911;SDS011;34722;52.108;5.044;2022-09-09T13:31:22;8.88;;;4.40;;
48911;SDS011;34722;52.108;5.044;2022-09-09T13:34:29;13.63;;;4.15;;
48911;SDS011;34722;52.108;5.044;2022-09-09T13:37:01;9.65;;;5.47;;
48911;SDS011;34722;52.108;5.044;2022-09-09T13:39:30;7.85;;;5.28;;
48911;SDS011;34722;52.108;5.044;2022-09-09T13:41:59;8.20;;;4.75;;
48911;SDS011;34722;52.108;5.044;2022-09-09T13:44:30;11.35;;;5.20;;
48911;SDS011;34722;52.108;5.044;2022-09-09T13:49:43;9.77;;;5.38;;
48911;SDS011;34722;52.108;5.044;2022-09-09T13:52:19;9.43;;;6.18;;
48911;SDS011;34722;52.108;5.044;2022-09-09T13:54:48;13.82;;;6.75;;
48911;SDS011;34722;52.108;5.044;2022-09-09T13:57:24;15.82;;;7.68;;
48911;SDS011;34722;52.108;5.044;2022-09-09T13:59:51;15.18;;;8.20;;
48911;SDS011;34722;52.108;5.044;2022-09-09T14:02:19;14.48;;;8.25;;
48911;SDS011;34722;52.108;5.044;2022-09-09T14:04:48;12.38;;;8.73;;
48911;SDS011;34722;52.108;5.044;2022-09-09T14:07:16;10.82;;;8.30;;
48911;SDS011;34722;52.108;5.044;2022-09-09T14:09:43;20.40;;;10.00;;
48911;SDS011;34722;52.108;5.044;2022-09-09T14:12:10;12.98;;;8.80;;
48911;SDS011;34722;52.108;5.044;2022-09-09T14:14:36;16.58;;;8.75;;
48911;SDS011;34722;52.108;5.044;2022-09-09T14:17:03;11.77;;;8.02;;
48911;SDS011;34722;52.108;5.044;2022-09-09T14:19:32;14.63;;;9.25;;
48911;SDS011;34722;52.108;5.044;2022-09-09T14:21:59;12.27;;;8.32;;
48911;SDS011;34722;52.108;5.044;2022-09-09T14:24:29;8.18;;;6.97;;
48911;SDS011;34722;52.108;5.044;2022-09-09T14:26:57;10.75;;;7.28;;
48911;SDS011;34722;52.108;5.044;2022-09-09T14:29:24;8.27;;;6.32;;
48911;SDS011;34722;52.108;5.044;2022-09-09T14:31:51;8.90;;;5.35;;
48911;SDS011;34722;52.108;5.044;2022-09-09T14:34:17;6.60;;;4.40;;
48911;SDS011;34722;52.108;5.044;2022-09-09T14:36:43;6.38;;;3.50;;
48911;SDS011;34722;52.108;5.044;2022-09-09T20:18:43;24.77;;;12.07;;
48911;SDS011;34722;52.108;5.044;2022-09-09T20:21:19;17.80;;;10.40;;
48911;SDS011;34722;52.108;5.044;2022-09-09T20:23:48;20.88;;;11.23;;
48911;SDS011;34722;52.108;5.044;2022-09-09T20:26:15;16.67;;;9.75;;
48911;SDS011;34722;52.108;5.044;2022-09-09T20:28:47;17.17;;;9.25;;
48911;SDS011;34722;52.108;5.044;2022-09-09T20:31:19;20.60;;;9.88;;
48911;SDS011;34722;52.108;5.044;2022-09-09T20:33:48;17.95;;;9.75;;
48911;SDS011;34722;52.108;5.044;2022-09-09T20:36:21;21.83;;;10.68;;
48911;SDS011;34722;52.108;5.044;2022-09-09T20:39:02;19.50;;;9.68;;
48911;SDS011;34722;52.108;5.044;2022-09-09T20:41:39;19.92;;;9.15;;
48911;SDS011;34722;52.108;5.044;2022-09-09T20:44:08;18.15;;;8.13;;
48911;SDS011;34722;52.108;5.044;2022-09-09T20:46:42;18.08;;;8.40;;
48911;SDS011;34722;52.108;5.044;2022-09-09T20:49:13;19.05;;;9.00;;
48911;SDS011;34722;52.108;5.044;2022-09-09T20:51:43;19.85;;;9.88;;
48911;SDS011;34722;52.108;5.044;2022-09-09T20:54:11;22.77;;;10.68;;
48911;SDS011;34722;52.108;5.044;2022-09-09T20:56:51;24.70;;;11.25;;
48911;SDS011;34722;52.108;5.044;2022-09-09T20:59:20;22.25;;;10.38;;
48911;SDS011;34722;52.108;5.044;2022-09-09T21:01:48;20.70;;;10.98;;
48911;SDS011;34722;52.108;5.044;2022-09-09T21:04:15;23.73;;;11.25;;
48911;SDS011;34722;52.108;5.044;2022-09-09T21:06:48;19.48;;;11.57;;
48911;SDS011;34722;52.108;5.044;2022-09-09T21:09:15;19.80;;;12.77;;
48911;SDS011;34722;52.108;5.044;2022-09-09T21:11:41;26.92;;;12.25;;
48911;SDS011;34722;52.108;5.044;2022-09-09T21:14:08;28.20;;;14.98;;
48911;SDS011;34722;52.108;5.044;2022-09-09T21:16:34;24.05;;;14.88;;
48911;SDS011;34722;52.108;5.044;2022-09-09T21:19:00;25.33;;;14.60;;
48911;SDS011;34722;52.108;5.044;2022-09-09T21:21:27;27.50;;;16.50;;
48911;SDS011;34722;52.108;5.044;2022-09-09T21:23:56;28.75;;;16.08;;
48911;SDS011;34722;52.108;5.044;2022-09-09T21:26:23;33.70;;;17.83;;
48911;SDS011;34722;52.108;5.044;2022-09-09T21:28:49;23.65;;;16.45;;
48911;SDS011;34722;52.108;5.044;2022-09-09T21:31:16;29.63;;;18.08;;
48911;SDS011;34722;52.108;5.044;2022-09-09T21:33:45;30.88;;;17.77;;
48911;SDS011;34722;52.108;5.044;2022-09-09T21:36:12;32.28;;;17.95;;
48911;SDS011;34722;52.108;5.044;2022-09-09T21:38:41;29.95;;;18.75;;
48911;SDS011;34722;52.108;5.044;2022-09-09T21:41:12;36.30;;;20.40;;
48911;SDS011;34722;52.108;5.044;2022-09-09T21:43:40;33.25;;;20.42;;
48911;SDS011;34722;52.108;5.044;2022-09-09T21:46:07;38.72;;;22.25;;
48911;SDS011;34722;52.108;5.044;2022-09-09T21:48:34;36.75;;;21.23;;
48911;SDS011;34722;52.108;5.044;2022-09-09T21:51:01;35.58;;;19.90;;
48911;SDS011;34722;52.108;5.044;2022-09-09T21:53:32;34.47;;;20.52;;
48911;SDS011;34722;52.108;5.044;2022-09-09T21:56:03;38.95;;;21.27;;
48911;SDS011;34722;52.108;5.044;2022-09-09T21:58:31;33.97;;;21.08;;
48911;SDS011;34722;52.108;5.044;2022-09-09T22:01:06;39.58;;;21.77;;
48911;SDS011;34722;52.108;5.044;2022-09-09T22:03:40;39.95;;;21.95;;
48911;SDS011;34722;52.108;5.044;2022-09-09T22:06:13;39.63;;;23.02;;
48911;SDS011;34722;52.108;5.044;2022-09-09T22:08:40;39.05;;;23.85;;
48911;SDS011;34722;52.108;5.044;2022-09-09T22:11:07;37.75;;;24.20;;
48911;SDS011;34722;52.108;5.044;2022-09-09T22:13:46;43.00;;;22.98;;
48911;SDS011;34722;52.108;5.044;2022-09-09T22:16:14;40.25;;;23.95;;
48911;SDS011;34722;52.108;5.044;2022-09-09T22:18:42;38.25;;;23.88;;
48911;SDS011;34722;52.108;5.044;2022-09-09T22:21:12;46.22;;;25.15;;
48911;SDS011;34722;52.108;5.044;2022-09-09T22:23:40;43.40;;;25.67;;
48911;SDS011;34722;52.108;5.044;2022-09-09T22:26:06;43.78;;;25.50;;
48911;SDS011;34722;52.108;5.044;2022-09-09T22:28:33;46.10;;;26.50;;
48911;SDS011;34722;52.108;5.044;2022-09-09T22:30:59;42.83;;;25.80;;
48911;SDS011;34722;52.108;5.044;2022-09-09T22:33:28;44.67;;;26.98;;
48911;SDS011;34722;52.108;5.044;2022-09-09T22:35:54;39.72;;;26.60;;
48911;SDS011;34722;52.108;5.044;2022-09-09T22:38:20;52.33;;;28.45;;
48911;SDS011;34722;52.108;5.044;2022-09-09T22:40:46;42.88;;;27.20;;
48911;SDS011;34722;52.108;5.044;2022-09-09T22:43:17;43.50;;;28.65;;
48911;SDS011;34722;52.108;5.044;2022-09-09T22:45:45;46.45;;;29.67;;
48911;SDS011;34722;52.108;5.044;2022-09-09T22:48:12;43.88;;;27.73;;
48911;SDS011;34722;52.108;5.044;2022-09-09T22:50:42;51.13;;;30.73;;
48911;SDS011;34722;52.108;5.044;2022-09-09T22:53:50;59.13;;;32.55;;
48911;SDS011;34722;52.108;5.044;2022-09-09T22:56:16;54.70;;;31.02;;
48911;SDS011;34722;52.108;5.044;2022-09-09T22:58:43;59.78;;;32.75;;
48911;SDS011;34722;52.108;5.044;2022-09-09T23:01:11;59.33;;;32.67;;
48911;SDS011;34722;52.108;5.044;2022-09-09T23:03:39;62.03;;;35.13;;
48911;SDS011;34722;52.108;5.044;2022-09-09T23:06:08;58.17;;;33.42;;
48911;SDS011;34722;52.108;5.044;2022-09-09T23:08:35;56.45;;;34.13;;
48911;SDS011;34722;52.108;5.044;2022-09-09T23:11:03;56.97;;;32.58;;
48911;SDS011;34722;52.108;5.044;2022-09-09T23:13:36;62.63;;;35.20;;
48911;SDS011;34722;52.108;5.044;2022-09-09T23:16:10;57.85;;;32.85;;
48911;SDS011;34722;52.108;5.044;2022-09-09T23:18:37;58.15;;;33.83;;
48911;SDS011;34722;52.108;5.044;2022-09-09T23:21:06;58.55;;;35.40;;
48911;SDS011;34722;52.108;5.044;2022-09-09T23:23:33;66.18;;;38.42;;
48911;SDS011;34722;52.108;5.044;2022-09-09T23:26:06;68.80;;;36.33;;
48911;SDS011;34722;52.108;5.044;2022-09-09T23:28:35;60.55;;;34.45;;
48911;SDS011;34722;52.108;5.044;2022-09-09T23:31:05;59.47;;;34.08;;
48911;SDS011;34722;52.108;5.044;2022-09-09T23:33:35;63.05;;;34.53;;